Time;durP1;ratioP1;P1;durP2;ratioP2;P2;SDS_P1;SDS_P2;PMS_P1;PMS_P2;Temp;Humidity;BMP_temperature;BMP_pressure;BME280_temperature;BME280_humidity;BME280_pressure;Samples;Min_cycle;Max_cycle;Signal;HPM_P1;HPM_P2
2022/08/02 00:01:53;;;;;;;11.27;5.88;;;11.80;85.40;;;;;;5088682;28;20032;-44
2022/08/02 00:04:19;;;;;;;10.93;6.30;;;11.70;85.20;;;;;;5089279;28;20070;-48
2022/08/02 00:06:45;;;;;;;9.00;5.55;;;11.70;85.20;;;;;;5071762;28;20077;-45
2022/08/02 00:09:10;;;;;;;8.68;6.50;;;11.70;85.30;;;;;;5089245;28;20038;-44
2022/08/02 00:11:36;;;;;;;8.68;4.90;;;11.70;85.50;;;;;;5089365;28;20089;-43
2022/08/02 00:14:02;;;;;;;12.23;6.03;;;11.70;85.20;;;;;;5089013;28;20035;-46
2022/08/02 00:16:28;;;;;;;12.90;5.40;;;11.60;85.50;;;;;;5071404;28;20502;-45
2022/08/02 00:18:54;;;;;;;7.65;5.13;;;11.60;85.80;;;;;;5054765;28;20028;-44
2022/08/02 00:21:19;;;;;;;11.68;5.95;;;11.60;85.70;;;;;;5089217;28;20020;-45
2022/08/02 00:23:45;;;;;;;11.90;6.20;;;11.50;85.80;;;;;;5071182;28;20028;-45
2022/08/02 00:26:11;;;;;;;8.18;5.30;;;11.50;86.00;;;;;;5071228;28;20028;-45
2022/08/02 00:28:37;;;;;;;8.75;5.10;;;11.50;86.00;;;;;;5089272;28;20024;-44
2022/08/02 00:31:02;;;;;;;8.38;5.53;;;11.50;86.20;;;;;;5089092;28;20028;-46
2022/08/02 00:33:28;;;;;;;11.15;6.05;;;11.40;86.10;;;;;;5089109;28;20028;-44
2022/08/02 00:35:53;;;;;;;6.93;4.90;;;11.50;86.00;;;;;;5090073;28;20012;-43
2022/08/02 00:38:19;;;;;;;10.07;5.65;;;11.40;86.00;;;;;;5092951;28;20102;-45
2022/08/02 00:40:50;;;;;;;7.35;4.43;;;11.40;86.00;;;;;;5075303;28;20024;-45
2022/08/02 00:43:16;;;;;;;10.25;4.97;;;11.40;86.10;;;;;;5092664;28;20494;-44
2022/08/02 00:45:42;;;;;;;6.82;4.57;;;11.40;86.10;;;;;;5092506;28;20034;-47
2022/08/02 00:48:09;;;;;;;8.27;5.70;;;11.40;86.20;;;;;;5092559;28;20016;-46
2022/08/02 00:50:36;;;;;;;5.03;4.35;;;11.40;86.30;;;;;;5092660;28;20024;-45
2022/08/02 00:53:02;;;;;;;12.00;4.57;;;11.40;86.30;;;;;;5092562;28;20032;-46
2022/08/02 00:55:28;;;;;;;5.72;4.57;;;11.40;86.50;;;;;;5092446;28;20086;-49
2022/08/02 00:57:54;;;;;;;8.07;5.18;;;11.40;86.50;;;;;;5092290;28;20030;-44
2022/08/02 01:00:22;;;;;;;14.50;5.30;;;11.40;86.50;;;;;;5091852;28;20031;-45
2022/08/02 01:02:48;;;;;;;6.55;5.03;;;11.30;86.60;;;;;;5092466;28;20390;-44
2022/08/02 01:05:14;;;;;;;7.65;4.78;;;11.40;86.70;;;;;;5074014;28;20024;-44
2022/08/02 01:07:40;;;;;;;7.88;4.35;;;11.30;86.80;;;;;;5074033;28;20043;-45
2022/08/02 01:10:06;;;;;;;7.13;4.32;;;11.40;86.70;;;;;;5091808;28;20455;-44
2022/08/02 01:12:32;;;;;;;7.10;4.97;;;11.40;86.70;;;;;;5091410;28;20032;-44
2022/08/02 01:15:01;;;;;;;7.95;5.63;;;11.40;86.80;;;;;;5057421;28;20020;-48
2022/08/02 01:17:49;;;;;;;6.45;4.80;;;11.40;86.80;;;;;;5091540;28;20020;-44
2022/08/02 01:20:44;;;;;;;8.95;4.70;;;11.40;86.90;;;;;;5091360;28;20433;-45
2022/08/02 01:23:40;;;;;;;7.20;4.78;;;11.40;86.90;;;;;;5091418;28;20067;-47
2022/08/02 01:26:05;;;;;;;10.45;5.63;;;11.40;86.90;;;;;;5091297;28;20111;-46
2022/08/02 01:29:15;;;;;;;7.28;4.85;;;11.40;86.80;;;;;;5091392;28;20107;-44
2022/08/02 01:31:48;;;;;;;7.25;4.53;;;11.40;86.80;;;;;;5009760;28;20026;-45
2022/08/02 01:34:38;;;;;;;9.77;5.47;;;11.40;86.80;;;;;;4993512;28;20140;-46
2022/08/02 01:37:26;;;;;;;9.07;6.30;;;11.40;86.70;;;;;;5010097;28;20380;-44
2022/08/02 01:40:02;;;;;;;7.45;4.70;;;11.50;86.80;;;;;;5010087;28;20069;-45
2022/08/02 01:42:30;;;;;;;6.03;4.00;;;11.50;86.80;;;;;;5009377;28;20531;-45
2022/08/02 01:45:00;;;;;;;10.63;6.78;;;11.50;86.70;;;;;;5009310;28;20048;-44
2022/08/02 01:47:27;;;;;;;;;;;11.40;86.80;;;;;;5009479;28;20594;-44
2022/08/02 01:49:59;;;;;;;6.32;4.65;;;11.50;86.80;;;;;;5009702;28;20335;-48
2022/08/02 01:52:32;;;;;;;6.75;4.50;;;11.50;86.80;;;;;;4993035;28;20125;-46
2022/08/02 01:55:07;;;;;;;7.32;5.13;;;11.40;86.80;;;;;;4992731;28;20026;-44
2022/08/02 01:57:47;;;;;;;9.02;4.60;;;11.50;87.00;;;;;;5009802;28;20030;-44
2022/08/02 02:00:14;;;;;;;10.55;5.32;;;11.50;86.90;;;;;;5009547;28;20052;-45
2022/08/02 02:02:43;;;;;;;6.65;4.80;;;11.40;86.70;;;;;;5058170;28;20089;-44
2022/08/02 02:05:19;;;;;;;13.90;6.13;;;11.40;87.10;;;;;;5091157;28;20020;-43
2022/08/02 02:07:48;;;;;;;6.50;5.00;;;11.40;87.20;;;;;;5073558;28;20043;-46
2022/08/02 02:10:17;;;;;;;7.13;4.10;;;11.40;87.20;;;;;;5091159;28;20035;-45
2022/08/02 02:12:47;;;;;;;6.80;4.18;;;11.50;87.00;;;;;;5072985;28;20024;-44
2022/08/02 02:15:18;;;;;;;7.15;4.05;;;11.40;87.00;;;;;;5090523;28;20024;-46
2022/08/02 02:17:50;;;;;;;5.63;4.18;;;11.40;87.00;;;;;;5090461;28;20357;-43
2022/08/02 02:20:19;;;;;;;10.50;4.95;;;11.40;87.00;;;;;;5073018;28;20057;-45
2022/08/02 02:22:46;;;;;;;7.65;4.45;;;11.40;87.20;;;;;;5072388;28;20024;-43
2022/08/02 02:25:13;;;;;;;15.52;5.57;;;11.40;87.00;;;;;;5090256;28;20028;-44
2022/08/02 02:28:03;;;;;;;8.02;5.07;;;11.30;87.00;;;;;;5089897;28;20032;-43
2022/08/02 02:30:32;;;;;;;;;;;11.40;87.10;;;;;;5090449;28;20043;-43
2022/08/02 02:33:01;;;;;;;7.87;4.73;;;11.30;86.90;;;;;;5090046;28;19908;-44
2022/08/02 02:35:31;;;;;;;8.98;4.72;;;11.30;86.50;;;;;;5089909;28;20020;-45
2022/08/02 02:38:01;;;;;;;7.97;4.75;;;11.10;86.40;;;;;;5089787;28;20127;-45
2022/08/02 02:40:28;;;;;;;6.40;4.22;;;11.00;86.70;;;;;;5090259;28;20028;-44
2022/08/02 02:42:55;;;;;;;8.00;5.30;;;11.00;86.80;;;;;;5068952;28;20048;-47
2022/08/02 02:45:24;;;;;;;9.38;4.78;;;11.00;86.90;;;;;;5069090;28;20666;-44
2022/08/02 02:47:52;;;;;;;8.75;4.45;;;11.00;86.90;;;;;;5069609;28;20036;-44
2022/08/02 02:50:18;;;;;;;7.13;4.78;;;11.00;87.00;;;;;;5069677;28;20028;-43
2022/08/02 02:52:45;;;;;;;7.20;4.63;;;10.90;87.00;;;;;;5068209;28;20024;-44
2022/08/02 02:55:11;;;;;;;7.93;4.47;;;10.90;87.10;;;;;;5068539;28;20047;-45
2022/08/02 02:57:41;;;;;;;6.63;4.07;;;10.90;87.10;;;;;;5069268;28;20021;-44
2022/08/02 03:00:11;;;;;;;7.60;4.28;;;10.90;87.00;;;;;;5069282;28;20111;-43
2022/08/02 03:02:41;;;;;;;11.32;5.40;;;10.90;87.20;;;;;;5069959;28;20038;-46
2022/08/02 03:05:08;;;;;;;6.60;5.20;;;10.90;87.30;;;;;;5069114;28;20024;-43
2022/08/02 03:07:35;;;;;;;8.50;5.13;;;10.90;87.30;;;;;;5068873;28;20028;-44
2022/08/02 03:10:03;;;;;;;10.00;5.07;;;10.90;87.60;;;;;;5070035;28;20033;-43
2022/08/02 03:12:29;;;;;;;7.97;5.18;;;10.90;87.60;;;;;;5069602;28;20050;-42
2022/08/02 03:14:57;;;;;;;9.73;5.80;;;10.90;87.60;;;;;;5068483;28;20101;-44
2022/08/02 03:17:25;;;;;;;10.52;5.38;;;10.90;87.60;;;;;;5068949;28;20048;-43
2022/08/02 03:19:53;;;;;;;10.32;5.18;;;10.90;87.30;;;;;;5069690;28;20028;-46
2022/08/02 03:22:18;;;;;;;8.80;4.88;;;10.90;87.30;;;;;;5069543;28;20389;-46
2022/08/02 03:24:44;;;;;;;9.43;5.18;;;10.90;87.40;;;;;;5069546;28;20036;-45
2022/08/02 03:27:10;;;;;;;8.60;5.38;;;10.90;87.30;;;;;;5068884;28;20040;-42
2022/08/02 03:29:38;;;;;;;9.70;5.63;;;10.90;87.10;;;;;;5069362;28;20037;-43
2022/08/02 03:32:04;;;;;;;10.93;6.32;;;10.90;87.20;;;;;;5069434;28;20056;-44
2022/08/02 03:34:30;;;;;;;6.75;4.80;;;10.80;87.00;;;;;;5068463;28;20017;-43
2022/08/02 03:36:57;;;;;;;8.73;4.85;;;10.80;87.30;;;;;;5068541;28;20028;-44
2022/08/02 03:39:23;;;;;;;10.32;5.65;;;10.80;87.30;;;;;;5069436;28;20088;-43
2022/08/02 03:41:50;;;;;;;9.00;5.40;;;10.80;87.40;;;;;;5074806;28;20075;-43
2022/08/02 03:44:16;;;;;;;11.35;4.90;;;10.90;87.20;;;;;;5071830;28;20073;-45
2022/08/02 03:46:42;;;;;;;6.72;4.43;;;10.80;87.10;;;;;;5089473;28;20024;-43
2022/08/02 03:49:09;;;;;;;6.60;4.65;;;10.80;87.10;;;;;;5071574;28;20024;-44
2022/08/02 03:51:38;;;;;;;9.60;5.38;;;10.80;87.00;;;;;;5089592;28;20012;-43
2022/08/02 03:54:05;;;;;;;8.35;4.80;;;10.80;87.00;;;;;;5089305;28;20089;-44
2022/08/02 03:56:31;;;;;;;8.05;4.82;;;10.80;87.00;;;;;;5089542;28;20028;-44
2022/08/02 03:59:11;;;;;;;8.02;5.00;;;10.80;87.00;;;;;;5071378;28;20020;-43
2022/08/02 04:01:37;;;;;;;11.45;5.18;;;10.80;87.00;;;;;;5071719;28;20032;-44
2022/08/02 04:04:03;;;;;;;7.75;5.10;;;10.80;87.10;;;;;;5089555;28;20226;-43
2022/08/02 04:06:28;;;;;;;6.13;4.70;;;10.90;87.10;;;;;;5089466;28;20047;-44
2022/08/02 04:08:54;;;;;;;9.35;4.40;;;10.80;87.10;;;;;;5089399;28;20024;-48
2022/08/02 04:11:37;;;;;;;7.43;5.13;;;10.90;87.30;;;;;;5093091;28;20024;-47
2022/08/02 04:14:10;;;;;;;8.75;5.50;;;10.90;87.20;;;;;;5093349;28;20456;-43
2022/08/02 04:16:51;;;;;;;8.00;4.95;;;10.80;87.20;;;;;;5058919;28;20449;-45
2022/08/02 04:19:26;;;;;;;10.57;5.68;;;10.90;87.40;;;;;;5075465;28;20030;-44
2022/08/02 04:21:53;;;;;;;9.90;5.55;;;10.90;87.40;;;;;;5093235;28;20020;-45
2022/08/02 04:24:30;;;;;;;9.85;5.05;;;10.90;87.40;;;;;;5075248;28;20080;-48
2022/08/02 04:26:58;;;;;;;7.28;5.22;;;11.00;87.50;;;;;;5093138;28;20353;-43
2022/08/02 04:29:25;;;;;;;10.30;5.55;;;10.90;87.60;;;;;;5092929;28;20020;-45
2022/08/02 04:31:53;;;;;;;10.75;6.22;;;11.00;87.50;;;;;;5093107;28;20028;-48
2022/08/02 04:34:21;;;;;;;10.07;6.32;;;11.00;87.60;;;;;;5075433;28;20024;-43
2022/08/02 04:36:48;;;;;;;7.45;4.63;;;11.00;87.70;;;;;;5092958;28;20026;-45
2022/08/02 04:39:13;;;;;;;9.00;6.30;;;11.00;87.80;;;;;;5092905;28;20056;-43
2022/08/02 04:41:40;;;;;;;10.60;5.50;;;11.10;87.80;;;;;;5092744;28;20144;-44
2022/08/02 04:44:06;;;;;;;11.77;6.45;;;11.10;87.90;;;;;;5092793;28;20120;-47
2022/08/02 04:46:32;;;;;;;12.13;6.45;;;11.30;88.00;;;;;;5092700;28;20061;-43
2022/08/02 04:49:00;;;;;;;10.95;5.70;;;11.30;87.90;;;;;;5092791;28;20113;-43
2022/08/02 04:51:26;;;;;;;10.50;6.53;;;11.30;87.70;;;;;;5092503;28;20021;-45
2022/08/02 04:53:51;;;;;;;7.88;5.30;;;11.30;87.80;;;;;;5074789;28;20085;-46
2022/08/02 04:56:19;;;;;;;11.98;6.85;;;11.40;88.00;;;;;;5092506;28;20020;-44
2022/08/02 04:58:44;;;;;;;12.50;6.43;;;11.40;88.10;;;;;;5092709;28;20520;-45
2022/08/02 05:01:10;;;;;;;11.18;5.70;;;11.50;88.00;;;;;;5074447;28;20036;-44
2022/08/02 05:03:36;;;;;;;13.25;5.03;;;11.60;88.00;;;;;;5074961;28;20081;-45
2022/08/02 05:06:02;;;;;;;15.00;5.28;;;11.60;87.90;;;;;;5074811;28;20369;-43
2022/08/02 05:08:28;;;;;;;13.10;4.93;;;11.70;88.00;;;;;;5092630;28;20111;-44
2022/08/02 05:10:54;;;;;;;13.55;6.07;;;11.80;87.80;;;;;;5092391;28;20020;-44
2022/08/02 05:13:22;;;;;;;13.00;5.88;;;11.80;87.60;;;;;;5092423;28;20039;-44
2022/08/02 05:15:49;;;;;;;12.52;5.07;;;11.90;87.60;;;;;;5092267;28;20047;-43
2022/08/02 05:18:15;;;;;;;13.13;4.93;;;11.90;87.50;;;;;;5074566;28;20024;-46
2022/08/02 05:20:41;;;;;;;10.65;4.78;;;12.00;87.50;;;;;;5074253;28;20452;-43
2022/08/02 05:23:08;;;;;;;13.32;6.78;;;12.10;87.50;;;;;;5091513;28;20042;-44
2022/08/02 05:25:34;;;;;;;11.45;4.80;;;12.20;87.40;;;;;;5074568;28;20028;-45
2022/08/02 05:28:00;;;;;;;16.15;6.10;;;12.40;87.20;;;;;;5074026;28;20028;-46
2022/08/02 05:30:25;;;;;;;11.27;5.53;;;12.40;86.90;;;;;;5092067;28;20032;-46
2022/08/02 05:32:51;;;;;;;13.90;5.32;;;12.40;86.90;;;;;;5073746;28;20102;-44
2022/08/02 05:35:23;;;;;;;9.82;5.22;;;12.50;86.80;;;;;;5091684;28;20027;-46
2022/08/02 05:37:52;;;;;;;13.73;4.68;;;12.60;86.60;;;;;;5091752;28;20440;-46
2022/08/02 05:40:20;;;;;;;12.03;5.00;;;12.70;86.50;;;;;;5074389;28;20064;-45
2022/08/02 05:42:46;;;;;;;9.48;3.88;;;12.80;86.20;;;;;;5091106;28;20406;-45
2022/08/02 05:45:12;;;;;;;17.45;4.55;;;12.90;86.00;;;;;;5091160;28;20034;-44
2022/08/02 05:47:38;;;;;;;12.38;4.03;;;12.90;85.90;;;;;;5091282;28;20028;-44
2022/08/02 05:50:06;;;;;;;12.30;4.60;;;13.00;85.30;;;;;;5091898;28;20017;-44
2022/08/02 05:52:46;;;;;;;11.73;5.55;;;13.10;85.10;;;;;;5091249;28;20024;-44
2022/08/02 05:55:26;;;;;;;12.20;4.53;;;13.20;84.90;;;;;;5072931;28;20138;-44
2022/08/02 05:58:04;;;;;;;13.32;4.55;;;13.30;84.60;;;;;;5073100;28;20040;-43
2022/08/02 06:00:35;;;;;;;11.50;3.78;;;13.40;84.20;;;;;;5090825;28;20055;-46
2022/08/02 06:03:24;;;;;;;11.27;4.55;;;13.50;83.70;;;;;;5090622;28;20136;-45
2022/08/02 06:06:01;;;;;;;14.07;3.50;;;13.60;83.70;;;;;;5090831;28;20024;-43
2022/08/02 06:08:32;;;;;;;16.48;4.47;;;13.70;83.30;;;;;;5090953;28;20039;-44
2022/08/02 06:11:01;;;;;;;12.82;3.33;;;13.80;83.30;;;;;;5090360;28;20021;-44
2022/08/02 06:13:27;;;;;;;13.75;4.07;;;13.90;83.70;;;;;;5072761;28;20583;-43
2022/08/02 06:15:58;;;;;;;12.07;3.17;;;14.00;83.80;;;;;;5090471;28;20078;-43
2022/08/02 06:18:28;;;;;;;8.25;3.45;;;14.00;82.70;;;;;;5090690;28;20031;-44
2022/08/02 06:21:00;;;;;;;9.75;3.90;;;14.10;82.60;;;;;;5090537;28;20429;-46
2022/08/02 06:23:27;;;;;;;11.55;3.45;;;14.20;82.30;;;;;;5072129;28;20031;-45
2022/08/02 06:25:55;;;;;;;15.23;4.65;;;14.30;82.80;;;;;;5090203;28;20031;-43
2022/08/02 06:28:22;;;;;;;8.60;3.35;;;14.40;82.80;;;;;;5090340;28;20030;-44
2022/08/02 06:30:48;;;;;;;10.38;3.67;;;14.40;82.30;;;;;;5090772;28;20028;-44
2022/08/02 06:33:14;;;;;;;9.50;3.85;;;14.60;82.30;;;;;;5089556;28;20031;-44
2022/08/02 06:35:49;;;;;;;13.18;4.07;;;14.70;82.80;;;;;;5090837;28;20016;-44
2022/08/02 06:38:22;;;;;;;8.45;3.38;;;14.90;82.50;;;;;;5090650;28;20024;-45
2022/08/02 06:40:58;;;;;;;9.23;3.05;;;14.90;80.40;;;;;;5090797;28;20103;-45
2022/08/02 06:43:43;;;;;;;10.90;3.28;;;15.10;80.40;;;;;;5090943;28;20052;-46
2022/08/02 06:46:09;;;;;;;9.18;3.95;;;15.20;80.30;;;;;;5090331;28;20028;-45
2022/08/02 06:48:35;;;;;;;9.68;3.88;;;15.30;80.50;;;;;;5090588;28;20043;-45
2022/08/02 06:51:04;;;;;;;11.50;3.50;;;15.30;79.50;;;;;;5090446;28;20020;-45
2022/08/02 06:53:30;;;;;;;9.27;3.28;;;15.40;79.60;;;;;;5072517;28;20020;-45
2022/08/02 06:55:55;;;;;;;11.35;3.35;;;15.40;79.30;;;;;;5072335;28;20449;-52
2022/08/02 06:58:21;;;;;;;7.95;3.08;;;15.60;79.20;;;;;;5072335;28;20713;-46
2022/08/02 07:00:47;;;;;;;11.27;3.15;;;15.70;78.40;;;;;;5090180;28;20099;-45
2022/08/02 07:03:13;;;;;;;10.30;3.55;;;15.70;79.10;;;;;;5090075;28;20032;-45
2022/08/02 07:05:40;;;;;;;9.40;3.30;;;15.90;78.30;;;;;;5090233;28;20105;-46
2022/08/02 07:08:06;;;;;;;11.35;3.10;;;15.90;79.20;;;;;;5090433;28;20038;-45
2022/08/02 07:10:31;;;;;;;8.55;2.92;;;16.00;79.10;;;;;;5090139;28;20039;-47
2022/08/02 07:12:57;;;;;;;11.45;3.90;;;16.10;78.60;;;;;;5089653;28;20099;-45
2022/08/02 07:15:23;;;;;;;13.52;2.95;;;16.10;77.80;;;;;;5089991;28;20449;-49
2022/08/02 07:17:48;;;;;;;7.82;3.28;;;16.10;78.00;;;;;;5090049;28;20028;-45
2022/08/02 07:20:16;;;;;;;12.90;4.88;;;16.20;78.30;;;;;;5072094;28;20360;-46
2022/08/02 07:22:42;;;;;;;12.25;2.85;;;16.40;78.20;;;;;;5089983;28;20119;-47
2022/08/02 07:25:09;;;;;;;8.40;3.78;;;16.40;77.30;;;;;;5089769;28;20126;-46
2022/08/02 07:27:34;;;;;;;9.88;4.25;;;16.40;77.80;;;;;;5089808;28;20027;-47
2022/08/02 07:30:00;;;;;;;11.65;4.25;;;16.60;76.80;;;;;;5089582;28;20024;-49
2022/08/02 07:32:28;;;;;;;7.30;3.30;;;16.80;78.00;;;;;;5089541;28;20024;-46
2022/08/02 07:34:57;;;;;;;10.07;2.80;;;17.00;77.10;;;;;;5071838;28;20459;-49
2022/08/02 07:37:25;;;;;;;9.50;3.57;;;17.40;76.10;;;;;;5071767;28;20032;-48
2022/08/02 07:39:51;;;;;;;5.82;2.78;;;17.70;73.20;;;;;;5089234;28;20119;-48
2022/08/02 07:42:17;;;;;;;8.23;3.53;;;17.80;72.80;;;;;;5089078;28;20126;-47
2022/08/02 07:44:45;;;;;;;8.23;3.30;;;17.90;72.50;;;;;;5071651;28;20023;-46
2022/08/02 07:47:10;;;;;;;13.38;3.25;;;18.00;72.00;;;;;;5071638;28;20035;-46
2022/08/02 07:49:36;;;;;;;8.25;3.40;;;18.30;70.50;;;;;;5089731;28;20020;-49
2022/08/02 07:52:03;;;;;;;8.35;2.47;;;18.40;71.80;;;;;;5071514;28;20021;-47
2022/08/02 07:54:29;;;;;;;10.73;2.70;;;18.90;71.00;;;;;;5089469;28;20078;-45
2022/08/02 07:56:57;;;;;;;10.00;2.65;;;19.30;69.00;;;;;;5071651;28;20519;-46
2022/08/02 07:59:22;;;;;;;6.80;2.83;;;19.40;67.20;;;;;;5089389;28;20346;-52
2022/08/02 08:01:49;;;;;;;8.93;2.83;;;19.20;67.90;;;;;;5089024;28;20028;-48
2022/08/02 08:04:16;;;;;;;9.52;3.38;;;19.40;69.80;;;;;;5071504;28;20024;-49
2022/08/02 08:06:42;;;;;;;11.15;3.60;;;19.80;67.70;;;;;;5089409;28;20036;-47
2022/08/02 08:09:11;;;;;;;9.98;3.22;;;20.30;67.50;;;;;;5089316;28;20028;-50
2022/08/02 08:11:36;;;;;;;11.40;3.65;;;20.60;65.20;;;;;;5088959;28;20487;-49
2022/08/02 08:14:04;;;;;;;8.98;3.67;;;20.90;66.50;;;;;;5088867;28;20024;-46
2022/08/02 08:16:30;;;;;;;10.45;2.85;;;21.00;63.40;;;;;;5088668;28;20111;-47
2022/08/02 08:18:56;;;;;;;7.57;2.40;;;21.10;65.50;;;;;;5071071;28;20135;-48
2022/08/02 08:21:21;;;;;;;6.53;2.55;;;21.30;64.80;;;;;;5088838;28;20039;-48
2022/08/02 08:23:47;;;;;;;9.20;2.63;;;21.40;62.20;;;;;;5088773;28;20016;-49
2022/08/02 08:26:13;;;;;;;6.15;2.08;;;21.60;63.00;;;;;;5070407;28;20441;-49
2022/08/02 08:28:41;;;;;;;9.65;2.72;;;22.10;60.00;;;;;;5070804;28;20032;-47
2022/08/02 08:31:06;;;;;;;9.35;2.55;;;21.90;61.20;;;;;;5088555;28;20358;-48
2022/08/02 08:33:32;;;;;;;9.23;2.85;;;21.80;60.80;;;;;;5088423;28;20518;-49
2022/08/02 08:35:58;;;;;;;8.32;2.35;;;22.10;59.60;;;;;;5070865;28;20119;-50
2022/08/02 08:38:24;;;;;;;13.68;3.08;;;21.90;60.90;;;;;;5088998;28;20031;-47
2022/08/02 08:40:50;;;;;;;5.35;1.67;;;22.20;60.20;;;;;;5089059;28;20028;-52
2022/08/02 08:43:15;;;;;;;6.57;2.63;;;22.60;62.70;;;;;;5088688;28;20135;-47
2022/08/02 08:45:46;;;;;;;8.38;2.42;;;22.90;59.90;;;;;;5088481;28;20039;-48
2022/08/02 08:48:14;;;;;;;8.18;2.38;;;22.90;57.00;;;;;;5070617;28;20149;-47
2022/08/02 08:50:54;;;;;;;5.17;1.67;;;22.90;58.20;;;;;;5088422;28;20052;-50
2022/08/02 08:53:25;;;;;;;5.25;2.08;;;22.70;58.00;;;;;;5088889;28;20489;-49
2022/08/02 08:55:53;;;;;;;7.95;2.20;;;22.90;56.30;;;;;;5088683;28;20346;-50
2022/08/02 08:58:21;;;;;;;4.95;1.52;;;22.80;56.10;;;;;;5092346;28;20437;-51
2022/08/02 09:00:47;;;;;;;3.40;1.58;;;22.90;56.10;;;;;;5092146;28;20032;-50
2022/08/02 09:03:13;;;;;;;6.43;1.80;;;22.90;55.80;;;;;;5074112;28;20028;-54
2022/08/02 09:05:45;;;;;;;4.32;1.70;;;22.90;55.30;;;;;;5057974;28;20040;-50
2022/08/02 09:08:14;;;;;;;6.70;1.95;;;22.50;56.50;;;;;;5092762;28;20047;-48
2022/08/02 09:10:46;;;;;;;6.15;2.25;;;22.80;57.50;;;;;;5092133;28;20393;-51
2022/08/02 09:13:30;;;;;;;4.57;1.75;;;22.50;55.40;;;;;;5092017;28;20095;-51
2022/08/02 09:16:03;;;;;;;5.28;1.73;;;22.50;55.50;;;;;;5092314;28;20119;-47
2022/08/02 09:18:29;;;;;;;6.10;1.92;;;22.50;56.80;;;;;;5092058;28;20040;-47
2022/08/02 09:20:57;;;;;;;5.55;1.83;;;22.60;54.70;;;;;;5092120;28;20040;-48
2022/08/02 09:23:25;;;;;;;7.22;2.35;;;22.90;57.30;;;;;;5073864;28;20107;-48
2022/08/02 09:26:00;;;;;;;9.90;2.72;;;23.00;58.60;;;;;;5092068;28;20123;-51
2022/08/02 09:28:38;;;;;;;4.95;2.47;;;23.30;58.40;;;;;;5092064;28;20425;-50
2022/08/02 09:31:11;;;;;;;7.47;2.67;;;23.40;54.70;;;;;;5074098;28;20337;-49
2022/08/02 09:33:39;;;;;;;7.28;1.83;;;23.20;56.50;;;;;;5091784;28;20360;-53
2022/08/02 09:36:09;;;;;;;4.20;1.58;;;23.20;53.80;;;;;;5073913;28;20047;-51
2022/08/02 09:38:36;;;;;;;7.32;1.90;;;23.30;51.80;;;;;;5074539;28;20042;-50
2022/08/02 09:41:03;;;;;;;4.82;1.50;;;22.90;53.10;;;;;;5091736;28;20028;-50
2022/08/02 09:43:39;;;;;;;4.72;1.48;;;22.90;53.00;;;;;;5091668;28;20779;-53
2022/08/02 09:46:16;;;;;;;4.70;1.90;;;22.80;52.70;;;;;;5091754;28;20028;-48
2022/08/02 09:49:18;;;;;;;6.95;1.60;;;23.00;52.30;;;;;;5091550;28;20039;-51
2022/08/02 09:51:50;;;;;;;4.85;1.58;;;23.10;53.60;;;;;;5077982;28;20509;-49
2022/08/02 09:54:18;;;;;;;5.60;1.42;;;23.40;53.70;;;;;;5091582;28;20024;-49
2022/08/02 09:56:43;;;;;;;3.53;1.27;;;23.70;51.90;;;;;;5073438;28;20044;-50
2022/08/02 09:59:10;;;;;;;5.25;1.63;;;23.80;51.00;;;;;;5091458;28;20062;-47
2022/08/02 10:01:40;;;;;;;6.28;1.98;;;23.60;51.20;;;;;;5073332;28;20337;-50
2022/08/02 10:04:09;;;;;;;8.70;1.73;;;23.70;50.00;;;;;;5091300;28;20024;-49
2022/08/02 10:06:35;;;;;;;7.18;1.70;;;23.70;50.70;;;;;;5091087;28;20028;-52
2022/08/02 10:09:01;;;;;;;4.93;2.17;;;23.90;52.40;;;;;;5090934;28;20035;-49
2022/08/02 10:11:27;;;;;;;3.47;1.30;;;24.10;51.40;;;;;;5090935;28;20024;-50
2022/08/02 10:13:54;;;;;;;5.20;1.15;;;24.30;52.10;;;;;;5091001;28;20024;-52
2022/08/02 10:16:22;;;;;;;5.72;2.20;;;24.40;52.30;;;;;;5073324;28;20025;-50
2022/08/02 10:19:00;;;;;;;7.72;2.20;;;24.40;49.70;;;;;;5090976;28;20445;-52
2022/08/02 10:21:32;;;;;;;3.53;1.33;;;24.60;49.40;;;;;;5091071;28;20024;-48
2022/08/02 10:24:15;;;;;;;6.55;2.17;;;24.30;49.20;;;;;;5090831;28;20035;-52
2022/08/02 10:26:43;;;;;;;4.53;1.38;;;24.40;51.60;;;;;;5090604;28;20246;-48
2022/08/02 10:29:10;;;;;;;7.75;1.55;;;24.20;48.70;;;;;;5090863;28;20529;-53
2022/08/02 10:31:52;;;;;;;3.30;1.13;;;24.30;49.80;;;;;;5072871;28;20036;-52
2022/08/02 10:34:23;;;;;;;5.43;1.45;;;24.40;51.10;;;;;;5091136;28;20313;-49
2022/08/02 10:36:50;;;;;;;2.85;1.15;;;24.50;48.70;;;;;;5072764;28;20024;-48
2022/08/02 10:39:18;;;;;;;5.32;1.52;;;24.40;48.00;;;;;;5090653;28;20020;-48
2022/08/02 10:41:51;;;;;;;3.28;1.10;;;24.40;48.10;;;;;;5090533;28;20048;-53
2022/08/02 10:44:28;;;;;;;5.25;1.77;;;24.50;48.60;;;;;;5090694;28;20020;-51
2022/08/02 10:47:12;;;;;;;6.28;1.20;;;24.90;46.50;;;;;;5090463;28;20061;-52
2022/08/02 10:49:54;;;;;;;3.22;1.15;;;24.60;48.40;;;;;;5090439;28;20024;-51
2022/08/02 10:52:24;;;;;;;7.65;1.58;;;24.60;49.50;;;;;;5090395;28;20102;-51
2022/08/02 10:54:54;;;;;;;6.20;1.83;;;24.80;50.00;;;;;;5090276;28;20101;-48
2022/08/02 10:57:32;;;;;;;3.63;1.33;;;24.80;46.20;;;;;;5072288;28;20025;-50
2022/08/02 11:00:20;;;;;;;3.80;1.55;;;24.50;49.80;;;;;;5090388;28;20032;-48
2022/08/02 11:02:47;;;;;;;4.93;1.67;;;24.80;47.40;;;;;;5078970;28;20032;-54
2022/08/02 11:05:17;;;;;;;4.35;2.00;;;24.60;48.00;;;;;;5090245;28;20449;-47
2022/08/02 11:07:48;;;;;;;7.07;1.60;;;24.60;49.50;;;;;;5090008;28;20340;-51
2022/08/02 11:10:25;;;;;;;3.95;1.33;;;24.50;50.70;;;;;;5090501;28;20024;-52
2022/08/02 11:13:15;;;;;;;4.15;1.38;;;24.60;49.80;;;;;;5089810;28;20055;-52
2022/08/02 11:16:00;;;;;;;4.55;1.73;;;24.90;50.00;;;;;;5090140;28;20039;-53
2022/08/02 11:18:50;;;;;;;8.23;1.80;;;24.90;48.60;;;;;;5090012;28;20118;-50
2022/08/02 11:21:28;;;;;;;4.20;1.60;;;25.00;49.80;;;;;;5089528;28;20028;-47
2022/08/02 11:23:55;;;;;;;6.32;1.42;;;25.20;50.10;;;;;;5089996;28;20028;-49
2022/08/02 11:26:29;;;;;;;4.45;1.45;;;25.20;49.40;;;;;;5071992;28;20028;-50
2022/08/02 11:29:00;;;;;;;3.45;1.30;;;25.10;48.80;;;;;;5072038;28;20100;-52
2022/08/02 11:31:27;;;;;;;4.00;1.50;;;25.30;51.40;;;;;;5089446;28;20072;-50
2022/08/02 11:33:53;;;;;;;4.53;1.35;;;25.50;49.70;;;;;;5089709;28;20038;-50
2022/08/02 11:36:19;;;;;;;6.03;1.90;;;25.40;49.10;;;;;;5072067;28;20024;-53
2022/08/02 11:38:45;;;;;;;4.30;1.40;;;25.70;50.10;;;;;;5089799;28;20023;-55
2022/08/02 11:41:21;;;;;;;6.43;1.65;;;25.80;49.20;;;;;;5089670;28;20495;-51
2022/08/02 11:43:54;;;;;;;3.53;1.55;;;25.80;48.80;;;;;;5089411;28;20043;-53
2022/08/02 11:46:19;;;;;;;3.53;1.38;;;25.80;50.10;;;;;;5089578;28;20361;-50
2022/08/02 11:48:45;;;;;;;3.40;1.27;;;25.40;48.40;;;;;;5089206;28;20038;-50
2022/08/02 11:51:16;;;;;;;5.30;1.70;;;25.40;48.00;;;;;;5071864;28;20042;-52
2022/08/02 11:53:53;;;;;;;2.70;1.17;;;25.00;49.50;;;;;;5089228;28;20030;-53
2022/08/02 11:56:26;;;;;;;2.65;1.02;;;25.10;51.10;;;;;;5089116;28;20055;-48
2022/08/02 11:59:09;;;;;;;5.80;1.73;;;25.30;49.90;;;;;;5089410;28;20031;-53
2022/08/02 12:01:38;;;;;;;5.40;1.40;;;25.30;49.70;;;;;;5071741;28;20441;-48
2022/08/02 12:04:05;;;;;;;;;;;25.30;51.20;;;;;;5071834;28;20036;-47
2022/08/02 12:06:31;;;;;;;2.47;1.10;;;25.40;50.80;;;;;;5089296;28;19955;-49
2022/08/02 12:09:11;;;;;;;7.00;1.60;;;25.30;52.60;;;;;;5089343;28;20032;-51
2022/08/02 12:11:37;;;;;;;4.55;1.85;;;25.30;52.00;;;;;;5089549;28;20643;-53
2022/08/02 12:14:04;;;;;;;5.72;1.48;;;25.20;51.10;;;;;;5088877;28;20026;-49
2022/08/02 12:19:29;;;;;;;3.28;1.35;;;25.00;52.50;;;;;;5088940;28;20042;-47
2022/08/02 12:22:10;;;;;;;3.50;1.52;;;25.30;52.20;;;;;;5071206;28;20586;-46
2022/08/02 12:24:39;;;;;;;4.10;1.80;;;25.40;51.20;;;;;;5070975;28;20318;-46
2022/08/02 12:27:05;;;;;;;3.00;1.40;;;25.30;50.30;;;;;;5071639;28;20032;-46
2022/08/02 12:29:35;;;;;;;3.53;1.35;;;25.20;50.70;;;;;;5071338;28;20481;-48
2022/08/02 12:32:07;;;;;;;5.45;1.70;;;25.20;51.90;;;;;;5090288;28;20024;-47
2022/08/02 12:34:35;;;;;;;8.10;1.95;;;25.40;52.80;;;;;;5092431;28;20024;-49
2022/08/02 12:37:08;;;;;;;2.80;1.58;;;25.50;51.50;;;;;;5074718;28;20035;-50
2022/08/02 12:39:36;;;;;;;6.50;2.42;;;25.50;51.80;;;;;;5092394;28;20020;-49
2022/08/02 12:42:03;;;;;;;3.92;1.48;;;25.50;51.40;;;;;;5093326;28;20131;-47
2022/08/02 12:44:29;;;;;;;5.28;1.73;;;25.50;51.80;;;;;;5092675;28;20081;-49
2022/08/02 12:47:04;;;;;;;6.10;1.60;;;25.40;51.40;;;;;;5075106;28;20665;-46
2022/08/02 12:49:30;;;;;;;5.07;1.50;;;25.40;51.30;;;;;;5093403;28;20437;-46
2022/08/02 12:51:55;;;;;;;3.40;1.58;;;25.40;53.10;;;;;;5092741;28;20091;-47
2022/08/02 12:54:27;;;;;;;3.22;1.83;;;25.50;53.60;;;;;;5092731;28;20027;-47
2022/08/02 12:56:53;;;;;;;4.65;1.52;;;25.60;50.20;;;;;;5092540;28;20020;-46
2022/08/02 12:59:36;;;;;;;3.65;1.70;;;25.70;50.70;;;;;;5074550;28;20327;-45
2022/08/02 13:02:09;;;;;;;4.20;1.70;;;25.80;51.50;;;;;;5092302;28;20028;-46